sensor_id;sensor_type;location;lat;lon;timestamp;P1;durP1;ratioP1;P2;durP2;ratioP2
3000;SDS011;1510;51.072;6.678;2023-12-20T00:02:11;1043.93;;;944.50;;
3000;SDS011;1510;51.072;6.678;2023-12-20T00:04:39;1040.13;;;943.47;;
3000;SDS011;1510;51.072;6.678;2023-12-20T00:07:06;1035.60;;;944.77;;
3000;SDS011;1510;51.072;6.678;2023-12-20T00:09:33;947.97;;;862.47;;
3000;SDS011;1510;51.072;6.678;2023-12-20T00:12:00;952.40;;;866.77;;
3000;SDS011;1510;51.072;6.678;2023-12-20T00:14:26;967.70;;;879.97;;
3000;SDS011;1510;51.072;6.678;2023-12-20T00:16:53;985.67;;;897.50;;
3000;SDS011;1510;51.072;6.678;2023-12-20T00:19:20;974.57;;;888.17;;
3000;SDS011;1510;51.072;6.678;2023-12-20T00:21:48;1036.30;;;945.40;;
3000;SDS011;1510;51.072;6.678;2023-12-20T00:24:15;1044.97;;;950.37;;
3000;SDS011;1510;51.072;6.678;2023-12-20T00:26:42;1052.57;;;959.50;;
3000;SDS011;1510;51.072;6.678;2023-12-20T00:29:09;1051.20;;;958.00;;
3000;SDS011;1510;51.072;6.678;2023-12-20T00:31:36;1049.70;;;956.10;;
3000;SDS011;1510;51.072;6.678;2023-12-20T00:34:03;1046.57;;;953.97;;
3000;SDS011;1510;51.072;6.678;2023-12-20T00:36:30;1059.67;;;962.27;;
3000;SDS011;1510;51.072;6.678;2023-12-20T00:38:58;1057.53;;;959.37;;
3000;SDS011;1510;51.072;6.678;2023-12-20T00:41:25;1110.57;;;999.90;;
3000;SDS011;1510;51.072;6.678;2023-12-20T00:43:52;1105.70;;;997.90;;
3000;SDS011;1510;51.072;6.678;2023-12-20T00:46:19;1057.13;;;953.00;;
3000;SDS011;1510;51.072;6.678;2023-12-20T00:48:45;1055.97;;;951.60;;
3000;SDS011;1510;51.072;6.678;2023-12-20T00:51:12;1052.47;;;947.63;;
3000;SDS011;1510;51.072;6.678;2023-12-20T00:53:39;1051.20;;;946.07;;
3000;SDS011;1510;51.072;6.678;2023-12-20T00:56:07;1066.40;;;958.60;;
3000;SDS011;1510;51.072;6.678;2023-12-20T00:58:34;1044.33;;;937.33;;
3000;SDS011;1510;51.072;6.678;2023-12-20T01:01:01;1114.67;;;999.63;;
3000;SDS011;1510;51.072;6.678;2023-12-20T01:03:28;1128.33;;;999.90;;
3000;SDS011;1510;51.072;6.678;2023-12-20T01:05:55;1123.60;;;999.90;;
3000;SDS011;1510;51.072;6.678;2023-12-20T01:08:22;1156.87;;;999.90;;
3000;SDS011;1510;51.072;6.678;2023-12-20T01:10:49;1185.93;;;999.90;;
3000;SDS011;1510;51.072;6.678;2023-12-20T01:13:17;1185.43;;;999.90;;
3000;SDS011;1510;51.072;6.678;2023-12-20T01:15:44;1157.53;;;999.90;;
3000;SDS011;1510;51.072;6.678;2023-12-20T01:18:12;1148.87;;;999.90;;
3000;SDS011;1510;51.072;6.678;2023-12-20T01:20:39;1118.93;;;999.90;;
3000;SDS011;1510;51.072;6.678;2023-12-20T01:23:06;1141.37;;;999.90;;
3000;SDS011;1510;51.072;6.678;2023-12-20T01:25:33;1150.77;;;999.90;;
3000;SDS011;1510;51.072;6.678;2023-12-20T01:27:59;1160.57;;;999.90;;
3000;SDS011;1510;51.072;6.678;2023-12-20T01:30:29;1091.30;;;991.33;;
3000;SDS011;1510;51.072;6.678;2023-12-20T01:32:56;1008.83;;;915.70;;
3000;SDS011;1510;51.072;6.678;2023-12-20T01:35:23;991.07;;;900.17;;
3000;SDS011;1510;51.072;6.678;2023-12-20T01:37:50;973.83;;;883.80;;
3000;SDS011;1510;51.072;6.678;2023-12-20T01:40:16;962.53;;;876.47;;
3000;SDS011;1510;51.072;6.678;2023-12-20T01:42:43;973.03;;;886.83;;
3000;SDS011;1510;51.072;6.678;2023-12-20T01:45:13;959.23;;;875.83;;
3000;SDS011;1510;51.072;6.678;2023-12-20T01:47:41;991.63;;;905.23;;
3000;SDS011;1510;51.072;6.678;2023-12-20T01:50:08;999.17;;;911.73;;
3000;SDS011;1510;51.072;6.678;2023-12-20T01:52:35;995.67;;;909.10;;
3000;SDS011;1510;51.072;6.678;2023-12-20T01:55:03;987.93;;;901.83;;
3000;SDS011;1510;51.072;6.678;2023-12-20T01:57:38;962.93;;;878.67;;
3000;SDS011;1510;51.072;6.678;2023-12-20T02:00:06;939.83;;;857.33;;
3000;SDS011;1510;51.072;6.678;2023-12-20T02:02:34;930.40;;;848.70;;
3000;SDS011;1510;51.072;6.678;2023-12-20T02:05:06;926.73;;;845.60;;
3000;SDS011;1510;51.072;6.678;2023-12-20T02:07:34;920.57;;;838.53;;
3000;SDS011;1510;51.072;6.678;2023-12-20T02:10:01;919.70;;;835.33;;
3000;SDS011;1510;51.072;6.678;2023-12-20T02:12:28;922.23;;;838.17;;
3000;SDS011;1510;51.072;6.678;2023-12-20T02:14:55;928.83;;;843.97;;
3000;SDS011;1510;51.072;6.678;2023-12-20T02:17:22;920.87;;;837.80;;
3000;SDS011;1510;51.072;6.678;2023-12-20T02:19:50;926.60;;;843.10;;
3000;SDS011;1510;51.072;6.678;2023-12-20T02:22:18;927.67;;;843.67;;
3000;SDS011;1510;51.072;6.678;2023-12-20T02:24:45;928.17;;;843.57;;
3000;SDS011;1510;51.072;6.678;2023-12-20T02:27:12;942.00;;;857.53;;
3000;SDS011;1510;51.072;6.678;2023-12-20T02:29:39;1005.90;;;915.83;;
3000;SDS011;1510;51.072;6.678;2023-12-20T02:32:05;1014.57;;;922.90;;
3000;SDS011;1510;51.072;6.678;2023-12-20T02:34:32;1008.17;;;918.00;;
3000;SDS011;1510;51.072;6.678;2023-12-20T02:36:59;976.47;;;890.80;;
3000;SDS011;1510;51.072;6.678;2023-12-20T02:39:28;916.17;;;832.37;;
3000;SDS011;1510;51.072;6.678;2023-12-20T02:41:54;924.53;;;842.10;;
3000;SDS011;1510;51.072;6.678;2023-12-20T02:44:21;912.43;;;831.57;;
3000;SDS011;1510;51.072;6.678;2023-12-20T02:46:48;894.10;;;815.03;;
3000;SDS011;1510;51.072;6.678;2023-12-20T02:49:15;946.97;;;865.90;;
3000;SDS011;1510;51.072;6.678;2023-12-20T02:51:42;963.20;;;879.40;;
3000;SDS011;1510;51.072;6.678;2023-12-20T02:54:09;959.73;;;876.57;;
3000;SDS011;1510;51.072;6.678;2023-12-20T02:56:37;972.70;;;887.10;;
3000;SDS011;1510;51.072;6.678;2023-12-20T02:59:03;974.83;;;889.63;;
3000;SDS011;1510;51.072;6.678;2023-12-20T03:01:33;969.00;;;884.77;;
3000;SDS011;1510;51.072;6.678;2023-12-20T03:04:00;971.83;;;889.57;;
3000;SDS011;1510;51.072;6.678;2023-12-20T03:06:27;955.37;;;875.53;;
3000;SDS011;1510;51.072;6.678;2023-12-20T03:08:54;937.00;;;859.30;;
3000;SDS011;1510;51.072;6.678;2023-12-20T03:11:21;885.43;;;810.70;;
3000;SDS011;1510;51.072;6.678;2023-12-20T03:13:49;887.30;;;810.20;;
3000;SDS011;1510;51.072;6.678;2023-12-20T03:16:16;903.80;;;827.10;;
3000;SDS011;1510;51.072;6.678;2023-12-20T03:18:43;893.47;;;815.60;;
3000;SDS011;1510;51.072;6.678;2023-12-20T03:21:09;897.70;;;821.70;;
3000;SDS011;1510;51.072;6.678;2023-12-20T03:23:36;888.33;;;813.40;;
3000;SDS011;1510;51.072;6.678;2023-12-20T03:26:03;897.57;;;822.77;;
3000;SDS011;1510;51.072;6.678;2023-12-20T03:28:33;906.40;;;831.63;;
3000;SDS011;1510;51.072;6.678;2023-12-20T03:31:03;937.90;;;862.40;;
3000;SDS011;1510;51.072;6.678;2023-12-20T03:33:29;951.70;;;874.43;;
3000;SDS011;1510;51.072;6.678;2023-12-20T03:35:56;959.87;;;881.70;;
3000;SDS011;1510;51.072;6.678;2023-12-20T03:38:23;960.97;;;883.70;;
3000;SDS011;1510;51.072;6.678;2023-12-20T03:40:50;955.93;;;880.40;;
3000;SDS011;1510;51.072;6.678;2023-12-20T03:43:17;919.93;;;846.50;;
3000;SDS011;1510;51.072;6.678;2023-12-20T03:45:44;908.73;;;835.57;;
3000;SDS011;1510;51.072;6.678;2023-12-20T03:48:12;907.13;;;834.90;;
3000;SDS011;1510;51.072;6.678;2023-12-20T03:50:39;899.53;;;826.33;;
3000;SDS011;1510;51.072;6.678;2023-12-20T03:53:06;904.90;;;830.97;;
3000;SDS011;1510;51.072;6.678;2023-12-20T03:55:33;903.63;;;829.50;;
3000;SDS011;1510;51.072;6.678;2023-12-20T03:58:00;907.37;;;833.50;;
3000;SDS011;1510;51.072;6.678;2023-12-20T04:00:27;902.97;;;827.97;;
3000;SDS011;1510;51.072;6.678;2023-12-20T04:02:54;907.20;;;834.40;;
3000;SDS011;1510;51.072;6.678;2023-12-20T04:05:22;915.17;;;842.77;;
3000;SDS011;1510;51.072;6.678;2023-12-20T04:07:49;917.17;;;845.87;;
3000;SDS011;1510;51.072;6.678;2023-12-20T04:10:16;954.23;;;880.77;;
3000;SDS011;1510;51.072;6.678;2023-12-20T04:12:45;940.63;;;868.50;;
3000;SDS011;1510;51.072;6.678;2023-12-20T04:15:12;913.57;;;842.17;;
3000;SDS011;1510;51.072;6.678;2023-12-20T04:17:39;904.53;;;833.90;;
3000;SDS011;1510;51.072;6.678;2023-12-20T04:20:06;915.80;;;844.80;;
3000;SDS011;1510;51.072;6.678;2023-12-20T04:22:35;921.17;;;847.67;;
3000;SDS011;1510;51.072;6.678;2023-12-20T04:25:02;915.60;;;843.93;;
3000;SDS011;1510;51.072;6.678;2023-12-20T04:27:29;914.13;;;841.83;;
3000;SDS011;1510;51.072;6.678;2023-12-20T04:29:56;928.53;;;856.80;;
3000;SDS011;1510;51.072;6.678;2023-12-20T04:32:23;937.63;;;866.33;;
3000;SDS011;1510;51.072;6.678;2023-12-20T04:34:49;924.00;;;854.10;;
3000;SDS011;1510;51.072;6.678;2023-12-20T04:37:16;932.03;;;860.93;;
3000;SDS011;1510;51.072;6.678;2023-12-20T04:39:44;965.43;;;892.27;;
3000;SDS011;1510;51.072;6.678;2023-12-20T04:42:11;956.43;;;884.93;;
3000;SDS011;1510;51.072;6.678;2023-12-20T04:44:38;964.03;;;894.33;;
3000;SDS011;1510;51.072;6.678;2023-12-20T04:47:05;954.70;;;884.93;;
3000;SDS011;1510;51.072;6.678;2023-12-20T04:49:32;953.13;;;884.57;;
3000;SDS011;1510;51.072;6.678;2023-12-20T04:51:58;949.07;;;880.03;;
3000;SDS011;1510;51.072;6.678;2023-12-20T04:54:25;931.37;;;862.77;;
3000;SDS011;1510;51.072;6.678;2023-12-20T04:56:53;930.53;;;862.87;;
3000;SDS011;1510;51.072;6.678;2023-12-20T04:59:20;925.77;;;859.43;;
3000;SDS011;1510;51.072;6.678;2023-12-20T05:01:47;913.77;;;846.17;;
3000;SDS011;1510;51.072;6.678;2023-12-20T05:04:14;913.80;;;846.00;;
3000;SDS011;1510;51.072;6.678;2023-12-20T05:06:40;911.07;;;843.20;;
3000;SDS011;1510;51.072;6.678;2023-12-20T05:09:07;926.13;;;857.23;;
3000;SDS011;1510;51.072;6.678;2023-12-20T05:11:35;937.40;;;868.67;;
3000;SDS011;1510;51.072;6.678;2023-12-20T05:14:03;936.43;;;868.03;;
3000;SDS011;1510;51.072;6.678;2023-12-20T05:16:30;924.53;;;855.67;;
3000;SDS011;1510;51.072;6.678;2023-12-20T05:18:56;933.80;;;864.60;;
3000;SDS011;1510;51.072;6.678;2023-12-20T05:21:25;918.47;;;850.23;;
3000;SDS011;1510;51.072;6.678;2023-12-20T05:23:52;920.13;;;850.40;;
3000;SDS011;1510;51.072;6.678;2023-12-20T05:26:19;931.07;;;862.33;;
3000;SDS011;1510;51.072;6.678;2023-12-20T05:28:46;935.67;;;865.83;;
3000;SDS011;1510;51.072;6.678;2023-12-20T05:31:14;921.23;;;855.30;;
3000;SDS011;1510;51.072;6.678;2023-12-20T05:33:41;932.43;;;866.47;;
3000;SDS011;1510;51.072;6.678;2023-12-20T05:36:08;912.00;;;847.50;;
3000;SDS011;1510;51.072;6.678;2023-12-20T05:38:36;914.27;;;850.80;;
3000;SDS011;1510;51.072;6.678;2023-12-20T05:41:03;906.00;;;844.27;;
3000;SDS011;1510;51.072;6.678;2023-12-20T05:43:30;907.77;;;846.00;;
3000;SDS011;1510;51.072;6.678;2023-12-20T05:45:57;902.00;;;840.57;;
3000;SDS011;1510;51.072;6.678;2023-12-20T05:48:26;897.17;;;836.80;;
3000;SDS011;1510;51.072;6.678;2023-12-20T05:50:53;892.23;;;831.90;;
3000;SDS011;1510;51.072;6.678;2023-12-20T05:53:20;896.83;;;836.87;;
3000;SDS011;1510;51.072;6.678;2023-12-20T05:55:46;900.07;;;839.90;;
3000;SDS011;1510;51.072;6.678;2023-12-20T05:58:13;911.30;;;851.53;;
3000;SDS011;1510;51.072;6.678;2023-12-20T06:00:41;905.13;;;845.33;;
3000;SDS011;1510;51.072;6.678;2023-12-20T06:03:08;896.73;;;838.47;;
3000;SDS011;1510;51.072;6.678;2023-12-20T06:05:36;889.03;;;833.73;;
3000;SDS011;1510;51.072;6.678;2023-12-20T06:08:03;871.03;;;819.43;;
3000;SDS011;1510;51.072;6.678;2023-12-20T06:10:30;878.17;;;825.93;;
3000;SDS011;1510;51.072;6.678;2023-12-20T06:12:57;864.83;;;811.93;;
3000;SDS011;1510;51.072;6.678;2023-12-20T06:15:25;851.87;;;801.07;;
3000;SDS011;1510;51.072;6.678;2023-12-20T06:17:52;844.83;;;794.53;;
3000;SDS011;1510;51.072;6.678;2023-12-20T06:20:19;838.97;;;789.70;;
3000;SDS011;1510;51.072;6.678;2023-12-20T06:22:47;821.53;;;774.13;;
3000;SDS011;1510;51.072;6.678;2023-12-20T06:25:16;837.53;;;788.03;;
